sensor_id;sensor_type;location;lat;lon;timestamp;P1;durP1;ratioP1;P2;durP2;ratioP2
21754;SDS011;11039;50.028;19.938;2023-08-31T00:00:22;8.50;;;7.53;;
21754;SDS011;11039;50.028;19.938;2023-08-31T00:02:48;8.70;;;7.45;;
21754;SDS011;11039;50.028;19.938;2023-08-31T00:05:14;8.98;;;6.93;;
21754;SDS011;11039;50.028;19.938;2023-08-31T00:07:40;9.00;;;7.28;;
21754;SDS011;11039;50.028;19.938;2023-08-31T00:10:06;9.48;;;7.10;;
21754;SDS011;11039;50.028;19.938;2023-08-31T00:12:36;7.43;;;6.55;;
21754;SDS011;11039;50.028;19.938;2023-08-31T00:17:21;9.23;;;6.88;;
21754;SDS011;11039;50.028;19.938;2023-08-31T00:19:47;10.15;;;7.07;;
21754;SDS011;11039;50.028;19.938;2023-08-31T00:22:13;9.02;;;7.22;;
21754;SDS011;11039;50.028;19.938;2023-08-31T00:24:39;8.55;;;7.10;;
21754;SDS011;11039;50.028;19.938;2023-08-31T00:27:05;8.50;;;7.47;;
21754;SDS011;11039;50.028;19.938;2023-08-31T00:29:31;7.88;;;6.70;;
21754;SDS011;11039;50.028;19.938;2023-08-31T00:31:57;9.48;;;7.50;;
21754;SDS011;11039;50.028;19.938;2023-08-31T00:34:23;9.23;;;6.82;;
21754;SDS011;11039;50.028;19.938;2023-08-31T00:36:49;8.07;;;6.60;;
21754;SDS011;11039;50.028;19.938;2023-08-31T00:41:33;8.45;;;6.47;;
21754;SDS011;11039;50.028;19.938;2023-08-31T00:43:59;7.05;;;6.35;;
21754;SDS011;11039;50.028;19.938;2023-08-31T00:53:22;7.80;;;6.82;;
21754;SDS011;11039;50.028;19.938;2023-08-31T00:55:48;8.05;;;7.05;;
21754;SDS011;11039;50.028;19.938;2023-08-31T00:58:15;7.78;;;6.60;;
21754;SDS011;11039;50.028;19.938;2023-08-31T01:03:31;8.82;;;6.60;;
21754;SDS011;11039;50.028;19.938;2023-08-31T01:06:02;9.25;;;6.93;;
21754;SDS011;11039;50.028;19.938;2023-08-31T01:13:26;8.35;;;6.70;;
21754;SDS011;11039;50.028;19.938;2023-08-31T01:15:55;9.60;;;6.68;;
21754;SDS011;11039;50.028;19.938;2023-08-31T01:18:22;8.50;;;6.65;;
21754;SDS011;11039;50.028;19.938;2023-08-31T01:21:08;7.75;;;6.75;;
21754;SDS011;11039;50.028;19.938;2023-08-31T01:23:49;7.57;;;6.20;;
21754;SDS011;11039;50.028;19.938;2023-08-31T01:26:16;9.90;;;6.25;;
21754;SDS011;11039;50.028;19.938;2023-08-31T01:28:42;10.05;;;6.82;;
21754;SDS011;11039;50.028;19.938;2023-08-31T01:31:09;7.60;;;6.20;;
21754;SDS011;11039;50.028;19.938;2023-08-31T01:33:35;7.57;;;6.53;;
21754;SDS011;11039;50.028;19.938;2023-08-31T01:38:21;7.35;;;6.65;;
21754;SDS011;11039;50.028;19.938;2023-08-31T01:43:10;7.22;;;6.38;;
21754;SDS011;11039;50.028;19.938;2023-08-31T01:45:37;7.93;;;6.93;;
21754;SDS011;11039;50.028;19.938;2023-08-31T01:48:04;9.82;;;6.90;;
21754;SDS011;11039;50.028;19.938;2023-08-31T01:50:30;7.18;;;6.50;;
21754;SDS011;11039;50.028;19.938;2023-08-31T01:52:56;7.25;;;6.32;;
21754;SDS011;11039;50.028;19.938;2023-08-31T01:55:23;7.97;;;6.18;;
21754;SDS011;11039;50.028;19.938;2023-08-31T02:00:10;7.57;;;6.75;;
21754;SDS011;11039;50.028;19.938;2023-08-31T02:04:56;7.18;;;6.47;;
21754;SDS011;11039;50.028;19.938;2023-08-31T02:07:22;7.85;;;6.57;;
21754;SDS011;11039;50.028;19.938;2023-08-31T02:09:48;7.03;;;6.18;;
21754;SDS011;11039;50.028;19.938;2023-08-31T02:12:14;7.20;;;6.50;;
21754;SDS011;11039;50.028;19.938;2023-08-31T02:14:40;6.78;;;6.07;;
21754;SDS011;11039;50.028;19.938;2023-08-31T02:17:06;8.00;;;7.00;;
21754;SDS011;11039;50.028;19.938;2023-08-31T02:19:32;7.40;;;6.35;;
21754;SDS011;11039;50.028;19.938;2023-08-31T02:21:58;7.40;;;6.43;;
21754;SDS011;11039;50.028;19.938;2023-08-31T02:24:24;6.60;;;5.90;;
21754;SDS011;11039;50.028;19.938;2023-08-31T02:26:50;7.57;;;5.85;;
21754;SDS011;11039;50.028;19.938;2023-08-31T02:29:16;8.48;;;6.40;;
21754;SDS011;11039;50.028;19.938;2023-08-31T02:34:01;8.73;;;6.47;;
21754;SDS011;11039;50.028;19.938;2023-08-31T02:36:27;8.57;;;6.78;;
21754;SDS011;11039;50.028;19.938;2023-08-31T02:38:53;7.90;;;6.43;;
21754;SDS011;11039;50.028;19.938;2023-08-31T02:41:19;8.13;;;6.95;;
21754;SDS011;11039;50.028;19.938;2023-08-31T02:43:45;7.80;;;6.70;;
21754;SDS011;11039;50.028;19.938;2023-08-31T02:46:12;7.43;;;6.68;;
21754;SDS011;11039;50.028;19.938;2023-08-31T02:48:38;8.63;;;7.15;;
21754;SDS011;11039;50.028;19.938;2023-08-31T02:51:04;7.65;;;6.95;;
21754;SDS011;11039;50.028;19.938;2023-08-31T02:56:01;9.38;;;7.00;;
21754;SDS011;11039;50.028;19.938;2023-08-31T02:58:27;7.72;;;6.75;;
21754;SDS011;11039;50.028;19.938;2023-08-31T03:00:53;7.93;;;6.80;;
21754;SDS011;11039;50.028;19.938;2023-08-31T03:03:20;7.72;;;6.93;;
21754;SDS011;11039;50.028;19.938;2023-08-31T03:05:47;8.00;;;7.13;;
21754;SDS011;11039;50.028;19.938;2023-08-31T03:08:13;7.45;;;6.65;;
21754;SDS011;11039;50.028;19.938;2023-08-31T03:10:39;8.02;;;7.22;;
21754;SDS011;11039;50.028;19.938;2023-08-31T03:15:24;8.02;;;7.22;;
21754;SDS011;11039;50.028;19.938;2023-08-31T03:17:50;9.10;;;7.80;;
21754;SDS011;11039;50.028;19.938;2023-08-31T03:20:16;9.10;;;7.43;;
21754;SDS011;11039;50.028;19.938;2023-08-31T03:22:42;8.27;;;7.28;;
21754;SDS011;11039;50.028;19.938;2023-08-31T03:25:08;8.35;;;7.55;;
21754;SDS011;11039;50.028;19.938;2023-08-31T03:27:34;8.48;;;7.15;;
21754;SDS011;11039;50.028;19.938;2023-08-31T03:32:20;8.82;;;7.72;;
21754;SDS011;11039;50.028;19.938;2023-08-31T03:34:46;8.15;;;7.35;;
21754;SDS011;11039;50.028;19.938;2023-08-31T03:37:12;9.57;;;7.47;;
21754;SDS011;11039;50.028;19.938;2023-08-31T03:41:58;8.98;;;7.88;;
21754;SDS011;11039;50.028;19.938;2023-08-31T03:44:24;9.15;;;8.07;;
21754;SDS011;11039;50.028;19.938;2023-08-31T03:46:50;9.13;;;8.23;;
21754;SDS011;11039;50.028;19.938;2023-08-31T03:49:16;9.20;;;8.30;;
21754;SDS011;11039;50.028;19.938;2023-08-31T03:51:42;10.15;;;7.75;;
21754;SDS011;11039;50.028;19.938;2023-08-31T03:54:08;9.52;;;8.48;;
21754;SDS011;11039;50.028;19.938;2023-08-31T03:56:34;8.73;;;7.45;;
21754;SDS011;11039;50.028;19.938;2023-08-31T03:59:01;9.82;;;8.38;;
21754;SDS011;11039;50.028;19.938;2023-08-31T04:01:31;9.63;;;7.95;;
21754;SDS011;11039;50.028;19.938;2023-08-31T04:03:57;11.20;;;8.68;;
21754;SDS011;11039;50.028;19.938;2023-08-31T04:06:23;9.57;;;8.57;;
21754;SDS011;11039;50.028;19.938;2023-08-31T04:08:49;9.98;;;8.43;;
21754;SDS011;11039;50.028;19.938;2023-08-31T04:13:34;10.77;;;8.75;;
21754;SDS011;11039;50.028;19.938;2023-08-31T04:16:00;11.10;;;8.43;;
21754;SDS011;11039;50.028;19.938;2023-08-31T04:18:27;10.02;;;8.63;;
21754;SDS011;11039;50.028;19.938;2023-08-31T04:20:53;9.45;;;8.48;;
21754;SDS011;11039;50.028;19.938;2023-08-31T04:23:19;9.38;;;8.48;;
21754;SDS011;11039;50.028;19.938;2023-08-31T04:28:03;8.60;;;7.80;;
21754;SDS011;11039;50.028;19.938;2023-08-31T04:32:48;9.43;;;8.27;;
21754;SDS011;11039;50.028;19.938;2023-08-31T04:37:33;8.90;;;8.10;;
21754;SDS011;11039;50.028;19.938;2023-08-31T04:42:17;8.98;;;8.07;;
21754;SDS011;11039;50.028;19.938;2023-08-31T04:44:43;11.00;;;8.00;;
21754;SDS011;11039;50.028;19.938;2023-08-31T04:47:10;9.05;;;8.23;;
21754;SDS011;11039;50.028;19.938;2023-08-31T04:49:36;10.48;;;8.27;;
21754;SDS011;11039;50.028;19.938;2023-08-31T04:52:02;9.18;;;8.07;;
21754;SDS011;11039;50.028;19.938;2023-08-31T04:54:28;10.60;;;8.18;;
21754;SDS011;11039;50.028;19.938;2023-08-31T04:56:54;8.95;;;8.05;;
21754;SDS011;11039;50.028;19.938;2023-08-31T04:59:20;8.68;;;7.75;;
21754;SDS011;11039;50.028;19.938;2023-08-31T05:01:46;10.32;;;8.55;;
21754;SDS011;11039;50.028;19.938;2023-08-31T05:04:12;9.13;;;7.75;;
21754;SDS011;11039;50.028;19.938;2023-08-31T05:08:57;9.65;;;7.65;;
21754;SDS011;11039;50.028;19.938;2023-08-31T05:13:43;8.27;;;7.47;;
21754;SDS011;11039;50.028;19.938;2023-08-31T05:16:09;9.32;;;7.20;;
21754;SDS011;11039;50.028;19.938;2023-08-31T05:18:35;8.52;;;7.20;;
21754;SDS011;11039;50.028;19.938;2023-08-31T05:23:21;8.32;;;6.47;;
21754;SDS011;11039;50.028;19.938;2023-08-31T05:25:47;10.18;;;7.45;;
21754;SDS011;11039;50.028;19.938;2023-08-31T05:28:13;8.52;;;7.03;;
21754;SDS011;11039;50.028;19.938;2023-08-31T05:30:49;7.90;;;7.10;;
21754;SDS011;11039;50.028;19.938;2023-08-31T05:33:15;7.75;;;6.10;;
21754;SDS011;11039;50.028;19.938;2023-08-31T05:40:19;8.43;;;6.35;;
21754;SDS011;11039;50.028;19.938;2023-08-31T05:42:45;8.30;;;6.88;;
21754;SDS011;11039;50.028;19.938;2023-08-31T05:45:11;7.80;;;7.00;;
21754;SDS011;11039;50.028;19.938;2023-08-31T05:49:54;7.57;;;6.75;;
21754;SDS011;11039;50.028;19.938;2023-08-31T05:52:20;7.80;;;6.93;;
21754;SDS011;11039;50.028;19.938;2023-08-31T05:54:46;7.70;;;6.60;;
21754;SDS011;11039;50.028;19.938;2023-08-31T05:57:12;6.88;;;6.18;;
21754;SDS011;11039;50.028;19.938;2023-08-31T05:59:38;7.30;;;6.30;;
21754;SDS011;11039;50.028;19.938;2023-08-31T06:02:04;7.82;;;6.60;;
21754;SDS011;11039;50.028;19.938;2023-08-31T06:09:08;7.13;;;5.72;;
21754;SDS011;11039;50.028;19.938;2023-08-31T06:11:34;6.93;;;6.05;;
21754;SDS011;11039;50.028;19.938;2023-08-31T06:14:00;9.70;;;6.05;;
21754;SDS011;11039;50.028;19.938;2023-08-31T06:18:43;10.73;;;5.88;;
21754;SDS011;11039;50.028;19.938;2023-08-31T06:25:47;8.98;;;5.93;;
21754;SDS011;11039;50.028;19.938;2023-08-31T06:28:13;8.20;;;5.70;;
21754;SDS011;11039;50.028;19.938;2023-08-31T06:32:58;8.15;;;5.55;;
21754;SDS011;11039;50.028;19.938;2023-08-31T06:35:24;9.25;;;5.22;;
21754;SDS011;11039;50.028;19.938;2023-08-31T06:37:50;7.95;;;5.43;;
21754;SDS011;11039;50.028;19.938;2023-08-31T06:40:16;6.60;;;5.38;;
21754;SDS011;11039;50.028;19.938;2023-08-31T06:42:42;7.18;;;5.10;;
21754;SDS011;11039;50.028;19.938;2023-08-31T06:47:29;5.47;;;4.72;;
21754;SDS011;11039;50.028;19.938;2023-08-31T06:52:13;5.68;;;4.30;;
21754;SDS011;11039;50.028;19.938;2023-08-31T06:54:41;5.68;;;4.43;;
21754;SDS011;11039;50.028;19.938;2023-08-31T06:57:07;5.72;;;4.00;;
21754;SDS011;11039;50.028;19.938;2023-08-31T06:59:33;4.75;;;4.28;;
21754;SDS011;11039;50.028;19.938;2023-08-31T07:01:59;7.53;;;3.85;;
21754;SDS011;11039;50.028;19.938;2023-08-31T07:04:26;7.53;;;4.60;;
21754;SDS011;11039;50.028;19.938;2023-08-31T07:06:52;6.72;;;4.30;;
21754;SDS011;11039;50.028;19.938;2023-08-31T07:09:18;8.68;;;4.50;;
21754;SDS011;11039;50.028;19.938;2023-08-31T07:11:44;6.78;;;4.03;;
21754;SDS011;11039;50.028;19.938;2023-08-31T07:14:10;6.63;;;4.15;;
21754;SDS011;11039;50.028;19.938;2023-08-31T07:16:36;4.95;;;3.70;;
21754;SDS011;11039;50.028;19.938;2023-08-31T07:21:22;5.60;;;3.75;;
21754;SDS011;11039;50.028;19.938;2023-08-31T07:26:06;5.32;;;3.63;;
21754;SDS011;11039;50.028;19.938;2023-08-31T07:28:32;6.18;;;4.05;;
21754;SDS011;11039;50.028;19.938;2023-08-31T07:31:02;4.25;;;3.83;;
21754;SDS011;11039;50.028;19.938;2023-08-31T07:35:46;3.85;;;3.13;;
21754;SDS011;11039;50.028;19.938;2023-08-31T07:38:12;4.68;;;3.38;;
21754;SDS011;11039;50.028;19.938;2023-08-31T07:40:39;5.13;;;3.60;;
21754;SDS011;11039;50.028;19.938;2023-08-31T07:45:25;7.13;;;3.78;;
21754;SDS011;11039;50.028;19.938;2023-08-31T07:50:10;5.43;;;3.83;;
21754;SDS011;11039;50.028;19.938;2023-08-31T07:52:37;5.97;;;3.55;;
21754;SDS011;11039;50.028;19.938;2023-08-31T07:55:03;5.13;;;3.90;;
21754;SDS011;11039;50.028;19.938;2023-08-31T07:57:29;7.20;;;4.57;;
21754;SDS011;11039;50.028;19.938;2023-08-31T08:02:14;5.22;;;3.95;;
21754;SDS011;11039;50.028;19.938;2023-08-31T08:04:41;5.63;;;3.83;;
21754;SDS011;11039;50.028;19.938;2023-08-31T08:07:07;4.95;;;3.45;;
21754;SDS011;11039;50.028;19.938;2023-08-31T08:09:34;4.38;;;3.42;;
21754;SDS011;11039;50.028;19.938;2023-08-31T08:12:00;5.40;;;3.47;;
21754;SDS011;11039;50.028;19.938;2023-08-31T08:14:28;3.72;;;3.30;;
21754;SDS011;11039;50.028;19.938;2023-08-31T08:16:54;6.05;;;3.40;;
21754;SDS011;11039;50.028;19.938;2023-08-31T08:21:38;7.68;;;4.30;;
21754;SDS011;11039;50.028;19.938;2023-08-31T08:24:04;12.48;;;4.63;;
21754;SDS011;11039;50.028;19.938;2023-08-31T08:26:30;13.00;;;4.90;;
21754;SDS011;11039;50.028;19.938;2023-08-31T08:28:56;11.35;;;3.97;;
21754;SDS011;11039;50.028;19.938;2023-08-31T08:31:22;7.95;;;4.30;;
21754;SDS011;11039;50.028;19.938;2023-08-31T08:36:07;9.05;;;3.88;;
21754;SDS011;11039;50.028;19.938;2023-08-31T08:38:33;5.32;;;3.75;;
21754;SDS011;11039;50.028;19.938;2023-08-31T08:41:03;9.13;;;3.67;;
21754;SDS011;11039;50.028;19.938;2023-08-31T08:45:49;4.50;;;3.20;;
21754;SDS011;11039;50.028;19.938;2023-08-31T08:48:16;4.57;;;2.83;;
21754;SDS011;11039;50.028;19.938;2023-08-31T08:50:44;5.50;;;3.22;;
21754;SDS011;11039;50.028;19.938;2023-08-31T08:53:10;6.82;;;2.80;;
21754;SDS011;11039;50.028;19.938;2023-08-31T08:55:38;3.42;;;3.00;;
21754;SDS011;11039;50.028;19.938;2023-08-31T08:58:04;3.53;;;2.80;;
21754;SDS011;11039;50.028;19.938;2023-08-31T09:02:49;5.20;;;2.80;;
21754;SDS011;11039;50.028;19.938;2023-08-31T09:07:36;4.65;;;2.80;;
21754;SDS011;11039;50.028;19.938;2023-08-31T09:10:02;2.60;;;2.40;;
21754;SDS011;11039;50.028;19.938;2023-08-31T09:12:29;2.80;;;2.58;;
21754;SDS011;11039;50.028;19.938;2023-08-31T09:15:02;3.65;;;2.72;;
21754;SDS011;11039;50.028;19.938;2023-08-31T09:17:38;2.67;;;2.40;;
21754;SDS011;11039;50.028;19.938;2023-08-31T09:20:05;12.93;;;3.15;;
21754;SDS011;11039;50.028;19.938;2023-08-31T09:22:32;5.40;;;2.88;;
21754;SDS011;11039;50.028;19.938;2023-08-31T09:27:19;2.70;;;2.50;;
21754;SDS011;11039;50.028;19.938;2023-08-31T09:29:47;6.15;;;3.00;;
21754;SDS011;11039;50.028;19.938;2023-08-31T09:32:19;3.92;;;2.67;;
21754;SDS011;11039;50.028;19.938;2023-08-31T09:37:05;3.63;;;2.90;;
21754;SDS011;11039;50.028;19.938;2023-08-31T09:41:55;2.83;;;2.60;;
21754;SDS011;11039;50.028;19.938;2023-08-31T09:44:22;4.28;;;2.53;;
21754;SDS011;11039;50.028;19.938;2023-08-31T09:49:07;6.32;;;3.10;;
21754;SDS011;11039;50.028;19.938;2023-08-31T09:51:33;2.85;;;2.55;;
21754;SDS011;11039;50.028;19.938;2023-08-31T09:54:01;5.57;;;2.97;;
21754;SDS011;11039;50.028;19.938;2023-08-31T09:56:28;2.70;;;2.30;;
21754;SDS011;11039;50.028;19.938;2023-08-31T10:01:13;5.35;;;2.67;;
21754;SDS011;11039;50.028;19.938;2023-08-31T10:03:39;3.45;;;2.67;;
21754;SDS011;11039;50.028;19.938;2023-08-31T10:06:06;3.30;;;2.78;;
21754;SDS011;11039;50.028;19.938;2023-08-31T10:08:32;2.97;;;2.67;;
21754;SDS011;11039;50.028;19.938;2023-08-31T10:10:59;3.50;;;2.60;;
21754;SDS011;11039;50.028;19.938;2023-08-31T10:13:28;4.97;;;2.40;;
21754;SDS011;11039;50.028;19.938;2023-08-31T10:18:17;3.10;;;2.42;;
21754;SDS011;11039;50.028;19.938;2023-08-31T10:20:44;2.50;;;2.30;;
21754;SDS011;11039;50.028;19.938;2023-08-31T10:23:11;3.35;;;2.53;;
21754;SDS011;11039;50.028;19.938;2023-08-31T10:25:59;4.63;;;3.03;;
21754;SDS011;11039;50.028;19.938;2023-08-31T10:28:25;2.70;;;2.50;;
21754;SDS011;11039;50.028;19.938;2023-08-31T10:31:09;2.70;;;2.50;;
21754;SDS011;11039;50.028;19.938;2023-08-31T10:36:15;2.38;;;2.17;;
21754;SDS011;11039;50.028;19.938;2023-08-31T10:43:45;4.43;;;2.50;;
21754;SDS011;11039;50.028;19.938;2023-08-31T10:48:50;3.55;;;2.55;;
21754;SDS011;11039;50.028;19.938;2023-08-31T10:51:16;2.70;;;2.50;;
21754;SDS011;11039;50.028;19.938;2023-08-31T10:53:45;3.88;;;2.58;;
21754;SDS011;11039;50.028;19.938;2023-08-31T10:56:17;5.43;;;2.90;;
21754;SDS011;11039;50.028;19.938;2023-08-31T10:58:54;5.65;;;2.70;;
21754;SDS011;11039;50.028;19.938;2023-08-31T11:04:09;5.03;;;2.70;;
21754;SDS011;11039;50.028;19.938;2023-08-31T11:06:38;10.70;;;3.22;;
21754;SDS011;11039;50.028;19.938;2023-08-31T11:09:04;4.32;;;2.70;;
21754;SDS011;11039;50.028;19.938;2023-08-31T11:11:39;3.78;;;3.03;;
21754;SDS011;11039;50.028;19.938;2023-08-31T11:14:05;3.58;;;2.90;;
21754;SDS011;11039;50.028;19.938;2023-08-31T11:16:37;5.10;;;3.08;;
21754;SDS011;11039;50.028;19.938;2023-08-31T11:19:03;4.78;;;3.42;;
21754;SDS011;11039;50.028;19.938;2023-08-31T11:21:29;3.55;;;2.78;;
21754;SDS011;11039;50.028;19.938;2023-08-31T11:23:57;4.57;;;3.35;;
21754;SDS011;11039;50.028;19.938;2023-08-31T11:26:24;6.05;;;3.45;;
21754;SDS011;11039;50.028;19.938;2023-08-31T11:33:31;4.85;;;3.42;;
21754;SDS011;11039;50.028;19.938;2023-08-31T11:38:17;4.18;;;3.78;;
21754;SDS011;11039;50.028;19.938;2023-08-31T11:40:43;5.65;;;3.58;;
21754;SDS011;11039;50.028;19.938;2023-08-31T11:43:09;4.03;;;3.53;;
21754;SDS011;11039;50.028;19.938;2023-08-31T11:45:36;4.55;;;3.70;;
21754;SDS011;11039;50.028;19.938;2023-08-31T11:50:21;4.65;;;3.67;;
21754;SDS011;11039;50.028;19.938;2023-08-31T11:52:47;6.05;;;3.60;;
21754;SDS011;11039;50.028;19.938;2023-08-31T11:57:32;4.05;;;3.55;;
21754;SDS011;11039;50.028;19.938;2023-08-31T11:59:58;4.53;;;4.10;;
21754;SDS011;11039;50.028;19.938;2023-08-31T12:02:24;4.25;;;3.85;;
21754;SDS011;11039;50.028;19.938;2023-08-31T12:04:50;4.40;;;4.00;;
21754;SDS011;11039;50.028;19.938;2023-08-31T12:07:17;5.18;;;3.90;;
21754;SDS011;11039;50.028;19.938;2023-08-31T12:14:23;7.03;;;3.95;;
21754;SDS011;11039;50.028;19.938;2023-08-31T12:19:09;4.85;;;4.10;;
21754;SDS011;11039;50.028;19.938;2023-08-31T12:21:35;4.82;;;4.38;;
21754;SDS011;11039;50.028;19.938;2023-08-31T12:24:01;5.28;;;4.25;;
21754;SDS011;11039;50.028;19.938;2023-08-31T12:26:28;6.18;;;4.47;;
21754;SDS011;11039;50.028;19.938;2023-08-31T12:31:14;3.75;;;3.40;;
21754;SDS011;11039;50.028;19.938;2023-08-31T12:33:40;4.80;;;3.70;;
21754;SDS011;11039;50.028;19.938;2023-08-31T12:36:06;4.30;;;3.90;;
21754;SDS011;11039;50.028;19.938;2023-08-31T12:38:32;4.78;;;3.95;;
21754;SDS011;11039;50.028;19.938;2023-08-31T12:40:58;5.55;;;3.78;;
21754;SDS011;11039;50.028;19.938;2023-08-31T12:43:26;4.82;;;3.65;;
21754;SDS011;11039;50.028;19.938;2023-08-31T12:45:53;5.10;;;4.03;;
21754;SDS011;11039;50.028;19.938;2023-08-31T12:48:19;4.85;;;4.05;;
21754;SDS011;11039;50.028;19.938;2023-08-31T12:53:05;4.90;;;4.05;;
21754;SDS011;11039;50.028;19.938;2023-08-31T12:55:32;4.18;;;3.70;;
21754;SDS011;11039;50.028;19.938;2023-08-31T12:57:58;3.92;;;3.60;;
21754;SDS011;11039;50.028;19.938;2023-08-31T13:00:24;4.55;;;3.63;;
21754;SDS011;11039;50.028;19.938;2023-08-31T13:02:50;4.47;;;3.70;;
21754;SDS011;11039;50.028;19.938;2023-08-31T13:07:36;4.07;;;3.70;;
21754;SDS011;11039;50.028;19.938;2023-08-31T13:10:02;4.07;;;3.67;;
21754;SDS011;11039;50.028;19.938;2023-08-31T13:12:29;5.35;;;3.50;;
21754;SDS011;11039;50.028;19.938;2023-08-31T13:14:56;6.20;;;3.42;;
21754;SDS011;11039;50.028;19.938;2023-08-31T13:17:22;4.00;;;3.60;;
21754;SDS011;11039;50.028;19.938;2023-08-31T13:19:52;4.30;;;3.40;;
21754;SDS011;11039;50.028;19.938;2023-08-31T13:22:18;4.70;;;3.58;;
21754;SDS011;11039;50.028;19.938;2023-08-31T13:24:44;4.78;;;3.63;;
21754;SDS011;11039;50.028;19.938;2023-08-31T13:27:10;4.00;;;3.60;;
21754;SDS011;11039;50.028;19.938;2023-08-31T13:29:36;4.72;;;3.50;;
21754;SDS011;11039;50.028;19.938;2023-08-31T13:32:02;3.55;;;3.25;;
21754;SDS011;11039;50.028;19.938;2023-08-31T13:36:49;4.50;;;2.92;;
21754;SDS011;11039;50.028;19.938;2023-08-31T13:39:15;3.58;;;3.28;;
21754;SDS011;11039;50.028;19.938;2023-08-31T13:41:41;3.88;;;3.35;;
21754;SDS011;11039;50.028;19.938;2023-08-31T13:44:07;4.78;;;3.42;;
21754;SDS011;11039;50.028;19.938;2023-08-31T13:46:33;5.30;;;3.72;;
21754;SDS011;11039;50.028;19.938;2023-08-31T13:48:59;4.30;;;3.40;;
21754;SDS011;11039;50.028;19.938;2023-08-31T13:53:45;4.80;;;3.40;;
21754;SDS011;11039;50.028;19.938;2023-08-31T13:56:12;3.85;;;3.33;;
21754;SDS011;11039;50.028;19.938;2023-08-31T13:58:38;3.33;;;3.03;;
21754;SDS011;11039;50.028;19.938;2023-08-31T14:01:05;3.70;;;3.40;;
21754;SDS011;11039;50.028;19.938;2023-08-31T14:03:31;4.07;;;3.22;;
21754;SDS011;11039;50.028;19.938;2023-08-31T14:05:57;3.25;;;3.00;;
21754;SDS011;11039;50.028;19.938;2023-08-31T14:08:23;4.22;;;3.50;;
21754;SDS011;11039;50.028;19.938;2023-08-31T14:10:49;3.30;;;3.00;;
21754;SDS011;11039;50.028;19.938;2023-08-31T14:13:17;4.47;;;3.45;;
21754;SDS011;11039;50.028;19.938;2023-08-31T14:15:46;2.80;;;2.60;;
21754;SDS011;11039;50.028;19.938;2023-08-31T14:20:31;3.22;;;2.83;;
21754;SDS011;11039;50.028;19.938;2023-08-31T14:22:57;3.90;;;3.03;;
21754;SDS011;11039;50.028;19.938;2023-08-31T14:25:23;3.30;;;3.00;;
21754;SDS011;11039;50.028;19.938;2023-08-31T14:27:50;3.15;;;2.85;;
21754;SDS011;11039;50.028;19.938;2023-08-31T14:30:16;3.22;;;2.90;;
21754;SDS011;11039;50.028;19.938;2023-08-31T14:32:42;4.25;;;2.83;;
21754;SDS011;11039;50.028;19.938;2023-08-31T14:35:08;3.28;;;2.97;;
21754;SDS011;11039;50.028;19.938;2023-08-31T14:37:35;5.40;;;2.95;;
21754;SDS011;11039;50.028;19.938;2023-08-31T14:40:01;3.40;;;3.00;;
21754;SDS011;11039;50.028;19.938;2023-08-31T14:42:27;2.88;;;2.67;;
21754;SDS011;11039;50.028;19.938;2023-08-31T14:44:53;3.53;;;2.67;;
21754;SDS011;11039;50.028;19.938;2023-08-31T14:47:19;3.97;;;3.58;;
21754;SDS011;11039;50.028;19.938;2023-08-31T14:49:45;4.10;;;3.22;;
21754;SDS011;11039;50.028;19.938;2023-08-31T14:52:11;4.47;;;3.42;;
21754;SDS011;11039;50.028;19.938;2023-08-31T14:54:38;3.28;;;3.03;;
21754;SDS011;11039;50.028;19.938;2023-08-31T14:57:04;3.30;;;3.00;;
21754;SDS011;11039;50.028;19.938;2023-08-31T15:01:49;4.05;;;3.17;;
21754;SDS011;11039;50.028;19.938;2023-08-31T15:06:34;4.65;;;3.13;;
21754;SDS011;11039;50.028;19.938;2023-08-31T15:09:00;4.63;;;3.42;;
21754;SDS011;11039;50.028;19.938;2023-08-31T15:11:27;4.10;;;3.30;;
21754;SDS011;11039;50.028;19.938;2023-08-31T15:16:12;4.10;;;3.70;;
21754;SDS011;11039;50.028;19.938;2023-08-31T15:18:38;3.67;;;3.30;;
21754;SDS011;11039;50.028;19.938;2023-08-31T15:25:42;4.40;;;3.65;;
21754;SDS011;11039;50.028;19.938;2023-08-31T15:28:08;3.63;;;3.33;;
21754;SDS011;11039;50.028;19.938;2023-08-31T15:30:34;3.55;;;3.25;;
21754;SDS011;11039;50.028;19.938;2023-08-31T15:33:01;4.15;;;3.70;;
21754;SDS011;11039;50.028;19.938;2023-08-31T15:35:30;5.50;;;3.10;;
21754;SDS011;11039;50.028;19.938;2023-08-31T15:37:56;3.90;;;3.50;;
21754;SDS011;11039;50.028;19.938;2023-08-31T15:40:22;3.28;;;2.90;;
21754;SDS011;11039;50.028;19.938;2023-08-31T15:42:48;3.75;;;3.30;;
21754;SDS011;11039;50.028;19.938;2023-08-31T15:45:14;4.03;;;3.05;;
21754;SDS011;11039;50.028;19.938;2023-08-31T15:47:41;5.75;;;3.30;;
21754;SDS011;11039;50.028;19.938;2023-08-31T15:50:07;4.30;;;3.60;;
21754;SDS011;11039;50.028;19.938;2023-08-31T15:52:33;4.07;;;3.22;;
21754;SDS011;11039;50.028;19.938;2023-08-31T15:55:01;3.38;;;2.78;;
21754;SDS011;11039;50.028;19.938;2023-08-31T15:57:28;4.40;;;3.38;;
21754;SDS011;11039;50.028;19.938;2023-08-31T15:59:57;5.80;;;3.35;;
21754;SDS011;11039;50.028;19.938;2023-08-31T16:02:30;4.30;;;2.90;;
21754;SDS011;11039;50.028;19.938;2023-08-31T16:04:57;3.42;;;3.00;;
21754;SDS011;11039;50.028;19.938;2023-08-31T16:07:23;3.50;;;3.20;;
21754;SDS011;11039;50.028;19.938;2023-08-31T16:09:50;4.72;;;3.20;;
21754;SDS011;11039;50.028;19.938;2023-08-31T16:12:16;4.95;;;3.15;;
21754;SDS011;11039;50.028;19.938;2023-08-31T16:14:46;4.32;;;3.28;;
21754;SDS011;11039;50.028;19.938;2023-08-31T16:17:12;5.00;;;3.20;;
21754;SDS011;11039;50.028;19.938;2023-08-31T16:21:56;4.38;;;3.40;;
21754;SDS011;11039;50.028;19.938;2023-08-31T16:24:23;5.30;;;3.30;;
21754;SDS011;11039;50.028;19.938;2023-08-31T16:26:49;4.03;;;3.13;;
21754;SDS011;11039;50.028;19.938;2023-08-31T16:29:15;4.28;;;3.00;;
21754;SDS011;11039;50.028;19.938;2023-08-31T16:31:42;3.40;;;3.10;;
21754;SDS011;11039;50.028;19.938;2023-08-31T16:34:08;3.38;;;2.97;;
21754;SDS011;11039;50.028;19.938;2023-08-31T16:36:34;3.33;;;2.92;;
21754;SDS011;11039;50.028;19.938;2023-08-31T16:39:00;3.47;;;2.80;;
21754;SDS011;11039;50.028;19.938;2023-08-31T16:43:45;3.40;;;2.70;;
21754;SDS011;11039;50.028;19.938;2023-08-31T16:46:11;3.67;;;2.63;;
21754;SDS011;11039;50.028;19.938;2023-08-31T16:48:37;5.30;;;2.65;;
21754;SDS011;11039;50.028;19.938;2023-08-31T16:51:03;3.72;;;2.65;;
21754;SDS011;11039;50.028;19.938;2023-08-31T16:53:29;3.35;;;2.40;;
21754;SDS011;11039;50.028;19.938;2023-08-31T16:55:55;4.90;;;2.70;;
21754;SDS011;11039;50.028;19.938;2023-08-31T16:58:22;5.15;;;3.20;;
21754;SDS011;11039;50.028;19.938;2023-08-31T17:00:48;4.22;;;2.70;;
21754;SDS011;11039;50.028;19.938;2023-08-31T17:03:14;4.68;;;2.70;;
21754;SDS011;11039;50.028;19.938;2023-08-31T17:05:40;6.03;;;2.97;;
21754;SDS011;11039;50.028;19.938;2023-08-31T17:08:06;3.00;;;2.53;;
21754;SDS011;11039;50.028;19.938;2023-08-31T17:10:32;3.78;;;2.97;;
21754;SDS011;11039;50.028;19.938;2023-08-31T17:15:17;4.18;;;2.85;;
21754;SDS011;11039;50.028;19.938;2023-08-31T17:17:43;3.88;;;2.65;;
21754;SDS011;11039;50.028;19.938;2023-08-31T17:20:11;4.10;;;2.80;;
21754;SDS011;11039;50.028;19.938;2023-08-31T17:22:44;4.15;;;2.83;;
21754;SDS011;11039;50.028;19.938;2023-08-31T17:27:29;3.15;;;2.65;;
21754;SDS011;11039;50.028;19.938;2023-08-31T17:29:55;2.63;;;2.42;;
21754;SDS011;11039;50.028;19.938;2023-08-31T17:32:22;3.30;;;2.72;;
21754;SDS011;11039;50.028;19.938;2023-08-31T17:37:07;4.57;;;3.10;;
21754;SDS011;11039;50.028;19.938;2023-08-31T17:39:33;3.22;;;2.92;;
21754;SDS011;11039;50.028;19.938;2023-08-31T17:41:59;3.50;;;3.10;;